ADDS TAF Board (Experimental) INFO Settings
IDs:

KMCI - Kansas City Intl, MO, US

Issued at 1120 UTC 23 May 2015
Updated at: 1202 UTC 23 May 2015
Time1153Z 23/13Z 23/14Z 23/15Z 23/16Z 23/17Z 23/18Z 23/19Z 23/20Z 23/21Z 23/22Z 23/23Z 24/00Z 24/01Z
Type OBS PRVL PRVL PRVL PRVL PRVL PRVL PRVL PRVL PRVL PRVL PRVL PRVL PRVL
VIS 7 >6 >6 >6 >6 >6 >6 >6 >6 >6 6 6 6 6
CIG 32 35 35 35 35 35 35 35 35 35 25 25 25 25
Cover OVC OVC OVC OVC OVC OVC OVC OVC OVC OVC OVC OVC OVC OVC
FltCat VFR VFR VFR VFR VFR VFR VFR VFR VFR VFR MVFR MVFR MVFR MVFR
WX -RA VCSH VCSH VCSH VCSH VCSH VCSH VCSH VCSH VCSH -SHRA -SHRA -SHRA -SHRA
WDir 180 140 140 140 140 140 140 140 140 140 130 130 130 130
WSpd 8 10 10 10 10 10 10 10 10 10 11 11 11 11
WGst 15 -- -- -- -- -- -- -- -- -- -- -- -- --
R01/19
XWnd -2 -8 -8 -8 -8 -8 -8 -8 -8 -8 -10 -10 -10 -10
XGst -3 -- -- -- -- -- -- -- -- -- -- -- -- --
HWnd -8 -6 -6 -6 -6 -6 -6 -6 -6 -6 -5 -5 -5 -5
HGst -15 -- -- -- -- -- -- -- -- -- -- -- -- --
R09/27
XWnd -8 -7 -7 -7 -7 -7 -7 -7 -7 -7 -6 -6 -6 -6
XGst -15 -- -- -- -- -- -- -- -- -- -- -- -- --
HWnd 1 7 7 7 7 7 7 7 7 7 9 9 9 9
HGst 2 -- -- -- -- -- -- -- -- -- -- -- -- --

NOTE: TEMPO conditions in [brackets]. Keep in mind TEMPO conditions might be better (lower impact) than prevailing conditions.

Raw TAF
KMCI 231120Z 2312/2412 14010KT P6SM VCSH OVC035
  FM232200 13011KT 6SM -SHRA OVC025
  FM240400 14015KT 4SM RA BR OVC018


Raw METAR
KMCI 231153Z 18008G15KT 7SM -RA OVC032 14/12 A3023 RMK AO2 RAB28E31B51 SLP232 P0000 60000 T01390122 10161 20139 53009
KMCI 231133Z 15005KT 8SM OVC032 14/12 A3022 RMK AO2 RAB28E31 P0000 T01440122
KMCI 231053Z 15006KT 10SM BKN026 OVC032 15/11 A3021 RMK AO2 SLP225 T01500111
KMCI 230953Z 18006KT 10SM OVC040 16/11 A3021 RMK AO2 SLP224 T01560106

METAR Board
Radar Display
Forecast Discussion

TAF Board Legend

Potential Impact
Threat None Slight Moderate High
Visibility (sm) ≥5.1 5.1>X≥3 3>X≥1 <1
Ceiling (100 ft) ≥30.1 30.1>X≥10 10>X≥5 <5
Wind Speed (kt) <10 10≤X<20 20≤X<30 ≥30
Wind Gust (kt) <15 15≤X<25 25≤X<35 ≥35
Weather No Wx Reported VCTS,-TS,-FZRA,SN TS,FZRA +TS,+FZRA,+SN